sensor_id;sensor_type;location;lat;lon;timestamp;P1;durP1;ratioP1;P2;durP2;ratioP2
18322;SDS011;9287;49.456;11.064;2023-07-28T00:01:53;2.93;;;2.53;;
18322;SDS011;9287;49.456;11.064;2023-07-28T00:04:20;3.30;;;2.70;;
18322;SDS011;9287;49.456;11.064;2023-07-28T00:06:48;3.80;;;2.30;;
18322;SDS011;9287;49.456;11.064;2023-07-28T00:09:16;3.30;;;2.30;;
18322;SDS011;9287;49.456;11.064;2023-07-28T00:11:44;3.60;;;3.27;;
18322;SDS011;9287;49.456;11.064;2023-07-28T00:14:12;3.03;;;2.53;;
18322;SDS011;9287;49.456;11.064;2023-07-28T00:16:39;2.40;;;2.20;;
18322;SDS011;9287;49.456;11.064;2023-07-28T00:19:09;3.27;;;2.87;;
18322;SDS011;9287;49.456;11.064;2023-07-28T00:21:37;3.37;;;2.53;;
18322;SDS011;9287;49.456;11.064;2023-07-28T00:24:05;3.47;;;2.73;;
18322;SDS011;9287;49.456;11.064;2023-07-28T00:26:33;2.60;;;2.40;;
18322;SDS011;9287;49.456;11.064;2023-07-28T00:29:01;3.17;;;2.63;;
18322;SDS011;9287;49.456;11.064;2023-07-28T00:31:32;3.40;;;3.10;;
18322;SDS011;9287;49.456;11.064;2023-07-28T00:34:01;5.57;;;3.13;;
18322;SDS011;9287;49.456;11.064;2023-07-28T00:36:32;2.97;;;2.70;;
18322;SDS011;9287;49.456;11.064;2023-07-28T00:39:00;2.73;;;2.53;;
18322;SDS011;9287;49.456;11.064;2023-07-28T00:41:28;2.80;;;2.60;;
18322;SDS011;9287;49.456;11.064;2023-07-28T00:43:56;3.07;;;2.87;;
18322;SDS011;9287;49.456;11.064;2023-07-28T00:46:24;3.10;;;2.50;;
18322;SDS011;9287;49.456;11.064;2023-07-28T00:48:52;3.07;;;2.87;;
18322;SDS011;9287;49.456;11.064;2023-07-28T00:51:20;2.40;;;2.23;;
18322;SDS011;9287;49.456;11.064;2023-07-28T00:53:50;3.17;;;2.87;;
18322;SDS011;9287;49.456;11.064;2023-07-28T00:56:19;3.47;;;2.67;;
18322;SDS011;9287;49.456;11.064;2023-07-28T00:58:48;4.73;;;3.23;;
18322;SDS011;9287;49.456;11.064;2023-07-28T01:01:17;3.53;;;3.23;;
18322;SDS011;9287;49.456;11.064;2023-07-28T01:03:45;3.43;;;2.40;;
18322;SDS011;9287;49.456;11.064;2023-07-28T01:06:14;2.70;;;2.50;;
18322;SDS011;9287;49.456;11.064;2023-07-28T01:08:49;2.47;;;2.27;;
18322;SDS011;9287;49.456;11.064;2023-07-28T01:11:24;2.93;;;2.73;;
18322;SDS011;9287;49.456;11.064;2023-07-28T01:13:52;2.93;;;2.50;;
18322;SDS011;9287;49.456;11.064;2023-07-28T01:16:19;3.37;;;2.73;;
18322;SDS011;9287;49.456;11.064;2023-07-28T01:18:48;3.00;;;2.70;;
18322;SDS011;9287;49.456;11.064;2023-07-28T01:21:17;3.60;;;2.90;;
18322;SDS011;9287;49.456;11.064;2023-07-28T01:23:55;3.20;;;2.80;;
18322;SDS011;9287;49.456;11.064;2023-07-28T01:26:31;4.93;;;2.73;;
18322;SDS011;9287;49.456;11.064;2023-07-28T01:28:59;2.80;;;2.60;;
18322;SDS011;9287;49.456;11.064;2023-07-28T01:31:28;6.23;;;3.30;;
18322;SDS011;9287;49.456;11.064;2023-07-28T01:33:56;2.87;;;2.67;;
18322;SDS011;9287;49.456;11.064;2023-07-28T01:36:24;4.17;;;3.77;;
18322;SDS011;9287;49.456;11.064;2023-07-28T01:38:51;4.77;;;4.37;;
18322;SDS011;9287;49.456;11.064;2023-07-28T01:41:20;3.97;;;3.57;;
18322;SDS011;9287;49.456;11.064;2023-07-28T01:43:49;5.07;;;4.03;;
18322;SDS011;9287;49.456;11.064;2023-07-28T01:46:17;4.10;;;3.63;;
18322;SDS011;9287;49.456;11.064;2023-07-28T01:48:44;3.80;;;3.50;;
18322;SDS011;9287;49.456;11.064;2023-07-28T01:51:12;4.40;;;3.93;;
18322;SDS011;9287;49.456;11.064;2023-07-28T01:53:40;4.87;;;4.27;;
18322;SDS011;9287;49.456;11.064;2023-07-28T01:56:08;3.83;;;3.07;;
18322;SDS011;9287;49.456;11.064;2023-07-28T01:58:35;4.60;;;4.13;;
18322;SDS011;9287;49.456;11.064;2023-07-28T02:01:04;3.90;;;3.60;;
18322;SDS011;9287;49.456;11.064;2023-07-28T02:03:32;3.33;;;3.03;;
18322;SDS011;9287;49.456;11.064;2023-07-28T02:06:00;4.83;;;3.33;;
18322;SDS011;9287;49.456;11.064;2023-07-28T02:08:28;3.77;;;3.47;;
18322;SDS011;9287;49.456;11.064;2023-07-28T02:10:58;2.87;;;2.67;;
18322;SDS011;9287;49.456;11.064;2023-07-28T02:13:26;4.10;;;3.60;;
18322;SDS011;9287;49.456;11.064;2023-07-28T02:15:54;4.53;;;3.50;;
18322;SDS011;9287;49.456;11.064;2023-07-28T02:18:23;4.23;;;3.07;;
18322;SDS011;9287;49.456;11.064;2023-07-28T02:20:50;6.10;;;4.00;;
18322;SDS011;9287;49.456;11.064;2023-07-28T02:23:18;4.00;;;3.30;;
18322;SDS011;9287;49.456;11.064;2023-07-28T02:25:46;3.40;;;3.10;;
18322;SDS011;9287;49.456;11.064;2023-07-28T02:28:14;4.17;;;3.77;;
18322;SDS011;9287;49.456;11.064;2023-07-28T02:30:42;4.27;;;3.80;;
18322;SDS011;9287;49.456;11.064;2023-07-28T02:33:10;4.37;;;3.97;;
18322;SDS011;9287;49.456;11.064;2023-07-28T02:35:39;4.50;;;4.20;;
18322;SDS011;9287;49.456;11.064;2023-07-28T02:38:06;3.60;;;3.30;;
18322;SDS011;9287;49.456;11.064;2023-07-28T02:40:34;4.80;;;3.83;;
18322;SDS011;9287;49.456;11.064;2023-07-28T02:43:02;4.90;;;4.50;;
18322;SDS011;9287;49.456;11.064;2023-07-28T02:45:32;5.23;;;4.13;;
18322;SDS011;9287;49.456;11.064;2023-07-28T02:48:00;3.80;;;3.50;;
18322;SDS011;9287;49.456;11.064;2023-07-28T02:50:28;4.33;;;3.93;;
18322;SDS011;9287;49.456;11.064;2023-07-28T02:52:57;4.93;;;4.53;;
18322;SDS011;9287;49.456;11.064;2023-07-28T02:55:24;4.10;;;3.70;;
18322;SDS011;9287;49.456;11.064;2023-07-28T02:57:52;4.28;;;3.97;;
18322;SDS011;9287;49.456;11.064;2023-07-28T03:00:20;4.35;;;3.95;;
18322;SDS011;9287;49.456;11.064;2023-07-28T03:02:48;4.30;;;3.83;;
18322;SDS011;9287;49.456;11.064;2023-07-28T03:05:15;3.70;;;3.20;;
18322;SDS011;9287;49.456;11.064;2023-07-28T03:07:43;4.53;;;3.97;;
18322;SDS011;9287;49.456;11.064;2023-07-28T03:10:16;4.87;;;4.37;;
18322;SDS011;9287;49.456;11.064;2023-07-28T03:12:44;4.20;;;3.87;;
18322;SDS011;9287;49.456;11.064;2023-07-28T03:15:11;5.53;;;4.73;;
18322;SDS011;9287;49.456;11.064;2023-07-28T03:17:39;4.85;;;4.45;;
18322;SDS011;9287;49.456;11.064;2023-07-28T03:20:07;4.80;;;4.40;;
18322;SDS011;9287;49.456;11.064;2023-07-28T03:22:36;4.67;;;4.27;;
18322;SDS011;9287;49.456;11.064;2023-07-28T03:25:04;4.70;;;4.25;;
18322;SDS011;9287;49.456;11.064;2023-07-28T03:27:33;4.13;;;3.83;;
18322;SDS011;9287;49.456;11.064;2023-07-28T03:30:01;4.13;;;3.73;;
18322;SDS011;9287;49.456;11.064;2023-07-28T03:32:29;4.43;;;4.03;;
18322;SDS011;9287;49.456;11.064;2023-07-28T03:34:57;4.60;;;4.20;;
18322;SDS011;9287;49.456;11.064;2023-07-28T03:37:24;5.10;;;4.70;;
18322;SDS011;9287;49.456;11.064;2023-07-28T03:39:52;5.23;;;4.73;;
18322;SDS011;9287;49.456;11.064;2023-07-28T03:42:20;4.57;;;3.97;;
18322;SDS011;9287;49.456;11.064;2023-07-28T03:44:49;4.97;;;4.47;;
18322;SDS011;9287;49.456;11.064;2023-07-28T03:47:17;4.50;;;4.10;;
18322;SDS011;9287;49.456;11.064;2023-07-28T03:49:45;4.65;;;4.25;;
18322;SDS011;9287;49.456;11.064;2023-07-28T03:52:13;4.70;;;4.30;;
18322;SDS011;9287;49.456;11.064;2023-07-28T03:54:40;4.97;;;4.32;;
18322;SDS011;9287;49.456;11.064;2023-07-28T03:57:08;5.10;;;4.70;;
18322;SDS011;9287;49.456;11.064;2023-07-28T03:59:36;5.40;;;4.90;;
18322;SDS011;9287;49.456;11.064;2023-07-28T04:02:05;7.00;;;4.90;;
18322;SDS011;9287;49.456;11.064;2023-07-28T04:04:34;5.50;;;4.63;;
18322;SDS011;9287;49.456;11.064;2023-07-28T04:07:04;4.93;;;4.53;;
18322;SDS011;9287;49.456;11.064;2023-07-28T04:09:35;4.83;;;4.33;;
18322;SDS011;9287;49.456;11.064;2023-07-28T04:12:04;5.83;;;5.33;;
18322;SDS011;9287;49.456;11.064;2023-07-28T04:14:33;5.80;;;4.63;;
18322;SDS011;9287;49.456;11.064;2023-07-28T04:17:15;5.73;;;5.23;;
18322;SDS011;9287;49.456;11.064;2023-07-28T04:19:47;5.53;;;5.07;;
18322;SDS011;9287;49.456;11.064;2023-07-28T04:22:23;6.20;;;5.70;;
18322;SDS011;9287;49.456;11.064;2023-07-28T04:24:56;5.60;;;5.10;;
18322;SDS011;9287;49.456;11.064;2023-07-28T04:27:25;5.90;;;5.13;;
18322;SDS011;9287;49.456;11.064;2023-07-28T04:29:59;6.00;;;5.03;;
18322;SDS011;9287;49.456;11.064;2023-07-28T04:32:31;5.17;;;4.67;;
18322;SDS011;9287;49.456;11.064;2023-07-28T04:34:59;5.53;;;4.83;;
18322;SDS011;9287;49.456;11.064;2023-07-28T04:37:27;5.23;;;4.73;;
18322;SDS011;9287;49.456;11.064;2023-07-28T04:39:54;9.35;;;4.85;;
18322;SDS011;9287;49.456;11.064;2023-07-28T04:42:23;5.05;;;4.55;;
18322;SDS011;9287;49.456;11.064;2023-07-28T04:44:51;4.20;;;3.80;;
18322;SDS011;9287;49.456;11.064;2023-07-28T04:47:23;4.77;;;4.43;;
18322;SDS011;9287;49.456;11.064;2023-07-28T04:49:52;4.85;;;4.38;;
18322;SDS011;9287;49.456;11.064;2023-07-28T04:52:21;5.40;;;4.95;;
18322;SDS011;9287;49.456;11.064;2023-07-28T04:54:58;5.00;;;4.60;;
18322;SDS011;9287;49.456;11.064;2023-07-28T04:57:29;5.40;;;4.20;;
18322;SDS011;9287;49.456;11.064;2023-07-28T05:00:10;5.43;;;4.90;;
18322;SDS011;9287;49.456;11.064;2023-07-28T05:02:42;6.00;;;4.87;;
18322;SDS011;9287;49.456;11.064;2023-07-28T05:05:18;6.10;;;5.60;;
18322;SDS011;9287;49.456;11.064;2023-07-28T05:07:46;5.82;;;5.30;;
18322;SDS011;9287;49.456;11.064;2023-07-28T05:10:20;6.43;;;5.82;;
18322;SDS011;9287;49.456;11.064;2023-07-28T05:12:50;7.63;;;6.93;;
18322;SDS011;9287;49.456;11.064;2023-07-28T05:15:20;7.53;;;6.13;;
18322;SDS011;9287;49.456;11.064;2023-07-28T05:17:49;6.55;;;5.95;;
18322;SDS011;9287;49.456;11.064;2023-07-28T05:20:21;7.20;;;6.50;;
18322;SDS011;9287;49.456;11.064;2023-07-28T05:22:49;7.55;;;6.80;;
18322;SDS011;9287;49.456;11.064;2023-07-28T05:25:16;6.75;;;6.03;;
18322;SDS011;9287;49.456;11.064;2023-07-28T05:27:49;8.48;;;6.18;;
18322;SDS011;9287;49.456;11.064;2023-07-28T05:30:18;6.60;;;6.00;;
18322;SDS011;9287;49.456;11.064;2023-07-28T05:32:51;7.00;;;6.00;;
18322;SDS011;9287;49.456;11.064;2023-07-28T05:35:23;6.30;;;5.57;;
18322;SDS011;9287;49.456;11.064;2023-07-28T05:37:53;6.95;;;6.18;;
18322;SDS011;9287;49.456;11.064;2023-07-28T05:40:22;5.85;;;5.25;;
18322;SDS011;9287;49.456;11.064;2023-07-28T05:42:51;8.38;;;7.47;;
18322;SDS011;9287;49.456;11.064;2023-07-28T05:45:21;5.95;;;4.82;;
18322;SDS011;9287;49.456;11.064;2023-07-28T05:47:56;6.72;;;5.68;;
18322;SDS011;9287;49.456;11.064;2023-07-28T05:50:31;6.85;;;4.78;;
18322;SDS011;9287;49.456;11.064;2023-07-28T05:53:05;5.40;;;4.80;;
18322;SDS011;9287;49.456;11.064;2023-07-28T05:55:41;5.63;;;4.50;;
18322;SDS011;9287;49.456;11.064;2023-07-28T05:58:13;7.37;;;4.93;;
18322;SDS011;9287;49.456;11.064;2023-07-28T06:00:41;5.00;;;4.63;;
18322;SDS011;9287;49.456;11.064;2023-07-28T06:03:10;5.22;;;4.82;;
18322;SDS011;9287;49.456;11.064;2023-07-28T06:05:40;6.45;;;5.85;;
18322;SDS011;9287;49.456;11.064;2023-07-28T06:08:08;5.55;;;5.05;;
18322;SDS011;9287;49.456;11.064;2023-07-28T06:10:36;4.97;;;4.45;;
18322;SDS011;9287;49.456;11.064;2023-07-28T06:13:05;5.93;;;5.30;;
18322;SDS011;9287;49.456;11.064;2023-07-28T06:15:33;6.85;;;5.13;;
18322;SDS011;9287;49.456;11.064;2023-07-28T06:18:04;5.18;;;4.65;;
18322;SDS011;9287;49.456;11.064;2023-07-28T06:20:35;6.20;;;5.13;;
18322;SDS011;9287;49.456;11.064;2023-07-28T06:23:06;5.50;;;4.60;;
18322;SDS011;9287;49.456;11.064;2023-07-28T06:25:34;5.20;;;4.75;;
18322;SDS011;9287;49.456;11.064;2023-07-28T06:28:07;4.70;;;4.20;;
18322;SDS011;9287;49.456;11.064;2023-07-28T06:30:42;5.07;;;4.57;;
18322;SDS011;9287;49.456;11.064;2023-07-28T06:33:10;5.40;;;4.82;;
18322;SDS011;9287;49.456;11.064;2023-07-28T06:35:45;6.25;;;4.85;;
18322;SDS011;9287;49.456;11.064;2023-07-28T06:38:18;5.15;;;4.43;;
18322;SDS011;9287;49.456;11.064;2023-07-28T06:40:46;5.03;;;4.55;;
18322;SDS011;9287;49.456;11.064;2023-07-28T06:43:13;4.82;;;4.25;;
18322;SDS011;9287;49.456;11.064;2023-07-28T06:45:41;4.50;;;4.10;;
18322;SDS011;9287;49.456;11.064;2023-07-28T06:48:09;5.32;;;4.80;;
18322;SDS011;9287;49.456;11.064;2023-07-28T06:50:37;4.32;;;3.95;;
18322;SDS011;9287;49.456;11.064;2023-07-28T06:53:05;4.80;;;4.40;;
18322;SDS011;9287;49.456;11.064;2023-07-28T06:55:33;4.93;;;4.53;;
18322;SDS011;9287;49.456;11.064;2023-07-28T06:58:01;5.32;;;4.72;;
18322;SDS011;9287;49.456;11.064;2023-07-28T07:00:29;10.23;;;5.22;;
18322;SDS011;9287;49.456;11.064;2023-07-28T07:02:57;4.35;;;4.05;;
18322;SDS011;9287;49.456;11.064;2023-07-28T07:05:24;5.40;;;4.93;;
18322;SDS011;9287;49.456;11.064;2023-07-28T07:07:52;5.20;;;4.80;;
18322;SDS011;9287;49.456;11.064;2023-07-28T07:10:20;5.55;;;4.70;;
18322;SDS011;9287;49.456;11.064;2023-07-28T07:12:49;5.60;;;5.15;;
18322;SDS011;9287;49.456;11.064;2023-07-28T07:15:17;4.82;;;4.43;;
18322;SDS011;9287;49.456;11.064;2023-07-28T07:17:45;6.07;;;5.40;;
18322;SDS011;9287;49.456;11.064;2023-07-28T07:20:13;6.03;;;5.43;;
18322;SDS011;9287;49.456;11.064;2023-07-28T07:22:41;7.70;;;5.75;;
18322;SDS011;9287;49.456;11.064;2023-07-28T07:25:09;7.40;;;5.43;;
18322;SDS011;9287;49.456;11.064;2023-07-28T07:30:13;5.38;;;4.88;;
18322;SDS011;9287;49.456;11.064;2023-07-28T07:32:40;5.63;;;5.10;;
18322;SDS011;9287;49.456;11.064;2023-07-28T07:35:08;6.10;;;5.60;;
18322;SDS011;9287;49.456;11.064;2023-07-28T07:37:37;6.90;;;5.00;;
18322;SDS011;9287;49.456;11.064;2023-07-28T07:40:05;3.65;;;3.45;;
18322;SDS011;9287;49.456;11.064;2023-07-28T07:42:40;4.47;;;3.80;;
18322;SDS011;9287;49.456;11.064;2023-07-28T07:45:09;5.28;;;3.88;;
18322;SDS011;9287;49.456;11.064;2023-07-28T07:47:39;4.00;;;3.70;;
18322;SDS011;9287;49.456;11.064;2023-07-28T07:50:08;4.05;;;3.65;;
18322;SDS011;9287;49.456;11.064;2023-07-28T07:52:37;5.28;;;4.00;;
18322;SDS011;9287;49.456;11.064;2023-07-28T07:55:08;3.70;;;3.42;;
18322;SDS011;9287;49.456;11.064;2023-07-28T07:57:38;3.90;;;3.50;;
18322;SDS011;9287;49.456;11.064;2023-07-28T08:00:06;6.60;;;3.97;;
18322;SDS011;9287;49.456;11.064;2023-07-28T08:02:35;4.05;;;3.00;;
18322;SDS011;9287;49.456;11.064;2023-07-28T08:05:05;3.35;;;3.05;;
18322;SDS011;9287;49.456;11.064;2023-07-28T08:07:34;3.40;;;3.08;;
18322;SDS011;9287;49.456;11.064;2023-07-28T08:10:02;2.85;;;2.65;;
18322;SDS011;9287;49.456;11.064;2023-07-28T08:12:31;2.88;;;2.67;;
18322;SDS011;9287;49.456;11.064;2023-07-28T08:15:00;2.60;;;2.40;;
18322;SDS011;9287;49.456;11.064;2023-07-28T08:17:28;3.30;;;2.63;;
18322;SDS011;9287;49.456;11.064;2023-07-28T08:19:56;3.45;;;2.65;;
18322;SDS011;9287;49.456;11.064;2023-07-28T08:22:25;2.80;;;2.60;;
18322;SDS011;9287;49.456;11.064;2023-07-28T08:24:54;2.95;;;2.67;;
18322;SDS011;9287;49.456;11.064;2023-07-28T08:27:22;3.13;;;2.50;;
18322;SDS011;9287;49.456;11.064;2023-07-28T08:29:50;2.35;;;2.15;;
18322;SDS011;9287;49.456;11.064;2023-07-28T08:32:18;2.75;;;2.17;;
18322;SDS011;9287;49.456;11.064;2023-07-28T08:34:47;2.58;;;1.83;;
18322;SDS011;9287;49.456;11.064;2023-07-28T08:37:15;2.33;;;2.13;;
18322;SDS011;9287;49.456;11.064;2023-07-28T08:39:45;1.90;;;1.67;;
18322;SDS011;9287;49.456;11.064;2023-07-28T08:42:13;1.77;;;1.50;;
18322;SDS011;9287;49.456;11.064;2023-07-28T08:44:41;1.85;;;1.55;;
18322;SDS011;9287;49.456;11.064;2023-07-28T08:47:10;1.50;;;1.40;;
18322;SDS011;9287;49.456;11.064;2023-07-28T08:49:38;1.88;;;1.20;;
18322;SDS011;9287;49.456;11.064;2023-07-28T08:52:06;2.33;;;1.92;;
18322;SDS011;9287;49.456;11.064;2023-07-28T08:54:34;1.60;;;1.50;;
18322;SDS011;9287;49.456;11.064;2023-07-28T08:57:03;1.45;;;1.35;;
18322;SDS011;9287;49.456;11.064;2023-07-28T08:59:32;1.50;;;1.40;;
18322;SDS011;9287;49.456;11.064;2023-07-28T09:02:01;1.90;;;1.75;;
18322;SDS011;9287;49.456;11.064;2023-07-28T09:04:31;1.52;;;1.20;;
18322;SDS011;9287;49.456;11.064;2023-07-28T09:06:58;1.38;;;1.25;;
18322;SDS011;9287;49.456;11.064;2023-07-28T09:09:26;1.35;;;1.25;;
18322;SDS011;9287;49.456;11.064;2023-07-28T09:11:59;1.30;;;1.20;;
18322;SDS011;9287;49.456;11.064;2023-07-28T09:14:29;1.52;;;1.33;;
18322;SDS011;9287;49.456;11.064;2023-07-28T09:17:05;1.90;;;1.20;;
18322;SDS011;9287;49.456;11.064;2023-07-28T09:19:33;1.35;;;1.20;;
18322;SDS011;9287;49.456;11.064;2023-07-28T09:22:01;1.50;;;1.20;;
18322;SDS011;9287;49.456;11.064;2023-07-28T09:24:31;1.23;;;1.13;;
18322;SDS011;9287;49.456;11.064;2023-07-28T09:27:00;1.25;;;0.98;;
18322;SDS011;9287;49.456;11.064;2023-07-28T09:29:31;1.02;;;0.90;;
18322;SDS011;9287;49.456;11.064;2023-07-28T09:32:02;0.93;;;0.90;;
18322;SDS011;9287;49.456;11.064;2023-07-28T09:34:31;0.80;;;0.80;;
18322;SDS011;9287;49.456;11.064;2023-07-28T09:37:00;0.98;;;0.70;;
18322;SDS011;9287;49.456;11.064;2023-07-28T09:39:28;0.75;;;0.73;;
18322;SDS011;9287;49.456;11.064;2023-07-28T09:41:56;0.80;;;0.80;;
18322;SDS011;9287;49.456;11.064;2023-07-28T09:44:26;1.20;;;0.80;;
18322;SDS011;9287;49.456;11.064;2023-07-28T09:46:56;1.50;;;0.80;;
18322;SDS011;9287;49.456;11.064;2023-07-28T09:49:27;1.33;;;0.80;;
18322;SDS011;9287;49.456;11.064;2023-07-28T09:51:57;1.42;;;0.90;;
18322;SDS011;9287;49.456;11.064;2023-07-28T09:54:30;0.80;;;0.80;;
18322;SDS011;9287;49.456;11.064;2023-07-28T09:57:01;2.10;;;0.90;;
18322;SDS011;9287;49.456;11.064;2023-07-28T09:59:32;0.68;;;0.68;;
18322;SDS011;9287;49.456;11.064;2023-07-28T10:02:06;2.05;;;0.70;;
18322;SDS011;9287;49.456;11.064;2023-07-28T10:04:34;1.50;;;0.88;;
18322;SDS011;9287;49.456;11.064;2023-07-28T10:07:03;0.60;;;0.60;;
18322;SDS011;9287;49.456;11.064;2023-07-28T10:09:33;1.77;;;1.00;;
18322;SDS011;9287;49.456;11.064;2023-07-28T10:12:03;0.77;;;0.70;;
18322;SDS011;9287;49.456;11.064;2023-07-28T10:14:33;0.60;;;0.60;;
18322;SDS011;9287;49.456;11.064;2023-07-28T10:17:04;0.50;;;0.50;;
18322;SDS011;9287;49.456;11.064;2023-07-28T10:19:34;0.70;;;0.70;;
18322;SDS011;9287;49.456;11.064;2023-07-28T10:22:08;3.22;;;0.65;;
18322;SDS011;9287;49.456;11.064;2023-07-28T10:24:49;1.27;;;0.70;;
18322;SDS011;9287;49.456;11.064;2023-07-28T10:27:30;0.60;;;0.60;;
18322;SDS011;9287;49.456;11.064;2023-07-28T10:30:00;0.70;;;0.70;;
18322;SDS011;9287;49.456;11.064;2023-07-28T10:32:38;0.60;;;0.60;;
18322;SDS011;9287;49.456;11.064;2023-07-28T10:35:08;0.60;;;0.60;;
18322;SDS011;9287;49.456;11.064;2023-07-28T10:37:36;1.45;;;0.70;;
18322;SDS011;9287;49.456;11.064;2023-07-28T10:42:51;0.60;;;0.60;;
18322;SDS011;9287;49.456;11.064;2023-07-28T10:45:20;0.65;;;0.65;;
18322;SDS011;9287;49.456;11.064;2023-07-28T10:47:51;1.38;;;0.60;;
18322;SDS011;9287;49.456;11.064;2023-07-28T10:50:21;0.70;;;0.70;;
18322;SDS011;9287;49.456;11.064;2023-07-28T10:52:50;0.60;;;0.60;;
18322;SDS011;9287;49.456;11.064;2023-07-28T10:55:19;1.85;;;0.60;;
18322;SDS011;9287;49.456;11.064;2023-07-28T10:57:48;0.70;;;0.50;;
18322;SDS011;9287;49.456;11.064;2023-07-28T11:00:18;0.50;;;0.50;;
18322;SDS011;9287;49.456;11.064;2023-07-28T11:02:48;0.50;;;0.50;;
18322;SDS011;9287;49.456;11.064;2023-07-28T11:05:21;0.55;;;0.50;;
18322;SDS011;9287;49.456;11.064;2023-07-28T11:07:50;1.30;;;0.50;;
18322;SDS011;9287;49.456;11.064;2023-07-28T11:10:19;0.50;;;0.50;;
18322;SDS011;9287;49.456;11.064;2023-07-28T11:12:47;0.60;;;0.60;;
18322;SDS011;9287;49.456;11.064;2023-07-28T11:15:17;0.52;;;0.52;;
18322;SDS011;9287;49.456;11.064;2023-07-28T11:17:46;2.58;;;0.60;;
18322;SDS011;9287;49.456;11.064;2023-07-28T11:20:18;0.88;;;0.50;;
18322;SDS011;9287;49.456;11.064;2023-07-28T11:22:52;0.68;;;0.68;;
18322;SDS011;9287;49.456;11.064;2023-07-28T11:25:21;0.40;;;0.40;;
18322;SDS011;9287;49.456;11.064;2023-07-28T11:27:50;0.90;;;0.43;;
18322;SDS011;9287;49.456;11.064;2023-07-28T11:30:19;0.90;;;0.50;;
18322;SDS011;9287;49.456;11.064;2023-07-28T11:32:51;0.50;;;0.50;;
18322;SDS011;9287;49.456;11.064;2023-07-28T11:35:21;0.45;;;0.45;;
18322;SDS011;9287;49.456;11.064;2023-07-28T11:37:50;0.60;;;0.40;;
18322;SDS011;9287;49.456;11.064;2023-07-28T11:40:20;0.60;;;0.50;;
18322;SDS011;9287;49.456;11.064;2023-07-28T11:42:49;0.40;;;0.40;;
18322;SDS011;9287;49.456;11.064;2023-07-28T11:45:19;0.40;;;0.40;;
18322;SDS011;9287;49.456;11.064;2023-07-28T11:47:55;0.50;;;0.50;;
18322;SDS011;9287;49.456;11.064;2023-07-28T11:50:26;1.17;;;0.40;;
18322;SDS011;9287;49.456;11.064;2023-07-28T11:52:54;1.38;;;0.43;;
18322;SDS011;9287;49.456;11.064;2023-07-28T11:55:24;0.30;;;0.30;;
18322;SDS011;9287;49.456;11.064;2023-07-28T11:57:52;0.40;;;0.40;;
18322;SDS011;9287;49.456;11.064;2023-07-28T12:00:24;0.40;;;0.40;;
18322;SDS011;9287;49.456;11.064;2023-07-28T12:03:03;0.30;;;0.30;;
18322;SDS011;9287;49.456;11.064;2023-07-28T12:05:33;0.40;;;0.40;;
18322;SDS011;9287;49.456;11.064;2023-07-28T12:08:01;0.45;;;0.45;;
18322;SDS011;9287;49.456;11.064;2023-07-28T12:10:30;0.40;;;0.40;;
18322;SDS011;9287;49.456;11.064;2023-07-28T12:13:05;0.40;;;0.40;;
18322;SDS011;9287;49.456;11.064;2023-07-28T12:15:39;0.68;;;0.40;;
18322;SDS011;9287;49.456;11.064;2023-07-28T12:18:11;0.73;;;0.50;;
18322;SDS011;9287;49.456;11.064;2023-07-28T12:20:45;1.75;;;0.50;;
18322;SDS011;9287;49.456;11.064;2023-07-28T12:23:14;0.50;;;0.50;;
18322;SDS011;9287;49.456;11.064;2023-07-28T12:25:46;0.98;;;0.50;;
18322;SDS011;9287;49.456;11.064;2023-07-28T12:28:14;0.40;;;0.40;;
18322;SDS011;9287;49.456;11.064;2023-07-28T12:30:45;1.33;;;0.45;;
18322;SDS011;9287;49.456;11.064;2023-07-28T12:33:15;1.08;;;0.50;;
18322;SDS011;9287;49.456;11.064;2023-07-28T12:35:47;0.60;;;0.50;;
18322;SDS011;9287;49.456;11.064;2023-07-28T12:38:17;0.50;;;0.50;;
18322;SDS011;9287;49.456;11.064;2023-07-28T12:40:48;0.40;;;0.40;;
18322;SDS011;9287;49.456;11.064;2023-07-28T12:43:18;0.52;;;0.50;;
18322;SDS011;9287;49.456;11.064;2023-07-28T12:45:49;0.70;;;0.60;;
18322;SDS011;9287;49.456;11.064;2023-07-28T12:48:20;0.82;;;0.57;;
18322;SDS011;9287;49.456;11.064;2023-07-28T12:50:49;0.95;;;0.60;;
18322;SDS011;9287;49.456;11.064;2023-07-28T12:53:29;0.60;;;0.60;;
18322;SDS011;9287;49.456;11.064;2023-07-28T12:55:57;0.55;;;0.55;;
18322;SDS011;9287;49.456;11.064;2023-07-28T12:58:26;1.38;;;0.60;;
18322;SDS011;9287;49.456;11.064;2023-07-28T13:00:58;1.05;;;0.50;;
18322;SDS011;9287;49.456;11.064;2023-07-28T13:03:28;0.50;;;0.50;;
18322;SDS011;9287;49.456;11.064;2023-07-28T13:05:58;0.63;;;0.50;;
18322;SDS011;9287;49.456;11.064;2023-07-28T13:08:26;1.05;;;0.52;;
18322;SDS011;9287;49.456;11.064;2023-07-28T13:10:57;0.65;;;0.50;;
18322;SDS011;9287;49.456;11.064;2023-07-28T13:13:28;0.52;;;0.40;;
18322;SDS011;9287;49.456;11.064;2023-07-28T13:15:56;1.63;;;0.50;;
18322;SDS011;9287;49.456;11.064;2023-07-28T13:18:24;0.50;;;0.50;;
18322;SDS011;9287;49.456;11.064;2023-07-28T13:20:52;1.20;;;0.50;;
18322;SDS011;9287;49.456;11.064;2023-07-28T13:23:22;1.05;;;0.95;;
18322;SDS011;9287;49.456;11.064;2023-07-28T13:25:49;1.05;;;0.50;;
18322;SDS011;9287;49.456;11.064;2023-07-28T13:28:17;0.70;;;0.70;;
18322;SDS011;9287;49.456;11.064;2023-07-28T13:30:45;0.50;;;0.50;;
18322;SDS011;9287;49.456;11.064;2023-07-28T13:33:16;1.55;;;0.55;;
18322;SDS011;9287;49.456;11.064;2023-07-28T13:35:44;0.40;;;0.40;;
18322;SDS011;9287;49.456;11.064;2023-07-28T13:38:12;0.40;;;0.40;;
18322;SDS011;9287;49.456;11.064;2023-07-28T13:40:41;0.77;;;0.57;;
18322;SDS011;9287;49.456;11.064;2023-07-28T13:43:09;0.57;;;0.40;;
18322;SDS011;9287;49.456;11.064;2023-07-28T13:45:42;0.50;;;0.47;;
18322;SDS011;9287;49.456;11.064;2023-07-28T13:48:10;0.40;;;0.40;;
18322;SDS011;9287;49.456;11.064;2023-07-28T13:50:41;3.22;;;0.50;;
18322;SDS011;9287;49.456;11.064;2023-07-28T13:53:20;0.50;;;0.50;;
18322;SDS011;9287;49.456;11.064;2023-07-28T13:55:52;0.50;;;0.50;;
18322;SDS011;9287;49.456;11.064;2023-07-28T13:58:23;0.50;;;0.50;;
18322;SDS011;9287;49.456;11.064;2023-07-28T14:00:51;0.52;;;0.52;;
18322;SDS011;9287;49.456;11.064;2023-07-28T14:03:19;0.50;;;0.50;;
18322;SDS011;9287;49.456;11.064;2023-07-28T14:05:47;1.83;;;0.50;;
18322;SDS011;9287;49.456;11.064;2023-07-28T14:08:16;0.55;;;0.52;;
18322;SDS011;9287;49.456;11.064;2023-07-28T14:10:44;0.60;;;0.60;;
18322;SDS011;9287;49.456;11.064;2023-07-28T14:13:13;0.50;;;0.50;;
18322;SDS011;9287;49.456;11.064;2023-07-28T14:15:41;0.50;;;0.50;;
18322;SDS011;9287;49.456;11.064;2023-07-28T14:18:10;0.60;;;0.60;;
18322;SDS011;9287;49.456;11.064;2023-07-28T14:20:38;0.50;;;0.50;;
18322;SDS011;9287;49.456;11.064;2023-07-28T14:23:19;0.52;;;0.52;;
18322;SDS011;9287;49.456;11.064;2023-07-28T14:25:49;0.50;;;0.50;;
18322;SDS011;9287;49.456;11.064;2023-07-28T14:28:19;0.52;;;0.50;;
18322;SDS011;9287;49.456;11.064;2023-07-28T14:30:48;1.60;;;0.60;;
18322;SDS011;9287;49.456;11.064;2023-07-28T14:33:17;0.52;;;0.50;;
18322;SDS011;9287;49.456;11.064;2023-07-28T14:35:46;0.43;;;0.43;;
18322;SDS011;9287;49.456;11.064;2023-07-28T14:38:15;0.73;;;0.60;;
18322;SDS011;9287;49.456;11.064;2023-07-28T14:40:44;0.88;;;0.60;;
18322;SDS011;9287;49.456;11.064;2023-07-28T14:43:15;0.50;;;0.50;;
18322;SDS011;9287;49.456;11.064;2023-07-28T14:45:45;1.40;;;0.70;;
18322;SDS011;9287;49.456;11.064;2023-07-28T14:48:13;2.38;;;1.55;;
18322;SDS011;9287;49.456;11.064;2023-07-28T14:50:41;1.85;;;1.48;;
18322;SDS011;9287;49.456;11.064;2023-07-28T14:56:06;1.27;;;0.80;;
18322;SDS011;9287;49.456;11.064;2023-07-28T14:58:34;0.70;;;0.70;;
18322;SDS011;9287;49.456;11.064;2023-07-28T15:01:04;0.90;;;0.90;;
18322;SDS011;9287;49.456;11.064;2023-07-28T15:03:33;17.88;;;0.90;;
18322;SDS011;9287;49.456;11.064;2023-07-28T15:06:02;1.15;;;0.80;;
18322;SDS011;9287;49.456;11.064;2023-07-28T15:08:31;1.20;;;1.10;;
18322;SDS011;9287;49.456;11.064;2023-07-28T15:10:59;0.60;;;0.60;;